sensor_id;sensor_type;location;lat;lon;timestamp;P1;P2;P0
13030;PMS7003;6582;54.644;9.760;2022-10-31T00:00:05;78.5;64.1;
13030;PMS7003;6582;54.644;9.760;2022-10-31T00:05:03;78.8;65.1;
13030;PMS7003;6582;54.644;9.760;2022-10-31T00:15:02;78.0;64.6;
13030;PMS7003;6582;54.644;9.760;2022-10-31T00:20:02;83.6;71.6;
13030;PMS7003;6582;54.644;9.760;2022-10-31T00:25:05;83.8;72.0;
13030;PMS7003;6582;54.644;9.760;2022-10-31T00:30:02;83.4;71.1;
13030;PMS7003;6582;54.644;9.760;2022-10-31T00:35:03;83.7;71.5;
13030;PMS7003;6582;54.644;9.760;2022-10-31T00:40:08;84.8;72.4;
13030;PMS7003;6582;54.644;9.760;2022-10-31T00:45:01;78.6;64.8;
13030;PMS7003;6582;54.644;9.760;2022-10-31T00:50:04;78.0;64.2;
13030;PMS7003;6582;54.644;9.760;2022-10-31T00:55:02;77.7;63.9;
13030;PMS7003;6582;54.644;9.760;2022-10-31T01:00:02;76.8;63.0;
13030;PMS7003;6582;54.644;9.760;2022-10-31T01:05:02;76.3;62.3;
13030;PMS7003;6582;54.644;9.760;2022-10-31T01:10:02;76.8;62.5;
13030;PMS7003;6582;54.644;9.760;2022-10-31T01:15:02;76.4;62.3;
13030;PMS7003;6582;54.644;9.760;2022-10-31T01:20:07;76.5;62.1;
13030;PMS7003;6582;54.644;9.760;2022-10-31T01:25:01;76.7;62.2;
13030;PMS7003;6582;54.644;9.760;2022-10-31T01:30:03;77.1;62.8;
13030;PMS7003;6582;54.644;9.760;2022-10-31T01:35:03;76.7;62.5;
13030;PMS7003;6582;54.644;9.760;2022-10-31T01:40:01;76.9;62.9;
13030;PMS7003;6582;54.644;9.760;2022-10-31T01:45:02;76.7;63.0;
13030;PMS7003;6582;54.644;9.760;2022-10-31T01:50:04;76.6;62.8;
13030;PMS7003;6582;54.644;9.760;2022-10-31T02:15:03;80.8;66.2;
13030;PMS7003;6582;54.644;9.760;2022-10-31T02:20:10;83.4;70.9;
13030;PMS7003;6582;54.644;9.760;2022-10-31T02:45:13;81.8;70.6;
13030;PMS7003;6582;54.644;9.760;2022-10-31T02:50:03;83.1;73.5;
13030;PMS7003;6582;54.644;9.760;2022-10-31T02:55:09;83.3;74.0;
13030;PMS7003;6582;54.644;9.760;2022-10-31T03:00:07;87.3;76.6;
13030;PMS7003;6582;54.644;9.760;2022-10-31T03:05:08;86.6;76.6;
13030;PMS7003;6582;54.644;9.760;2022-10-31T03:10:04;87.7;78.2;
13030;PMS7003;6582;54.644;9.760;2022-10-31T03:15:10;89.2;80.5;
13030;PMS7003;6582;54.644;9.760;2022-10-31T03:20:01;90.5;82.6;
13030;PMS7003;6582;54.644;9.760;2022-10-31T03:25:02;88.0;81.9;
13030;PMS7003;6582;54.644;9.760;2022-10-31T03:30:06;88.8;83.0;
13030;PMS7003;6582;54.644;9.760;2022-10-31T03:35:02;89.7;85.0;
13030;PMS7003;6582;54.644;9.760;2022-10-31T03:40:01;89.8;85.1;
13030;PMS7003;6582;54.644;9.760;2022-10-31T03:45:11;88.7;83.2;
13030;PMS7003;6582;54.644;9.760;2022-10-31T03:50:02;88.4;81.6;
13030;PMS7003;6582;54.644;9.760;2022-10-31T03:55:07;87.7;79.1;
13030;PMS7003;6582;54.644;9.760;2022-10-31T04:00:04;86.5;76.0;
13030;PMS7003;6582;54.644;9.760;2022-10-31T04:05:06;84.9;73.2;
13030;PMS7003;6582;54.644;9.760;2022-10-31T04:10:02;85.7;73.8;
13030;PMS7003;6582;54.644;9.760;2022-10-31T04:15:07;85.2;74.1;
13030;PMS7003;6582;54.644;9.760;2022-10-31T04:20:01;84.8;74.2;
13030;PMS7003;6582;54.644;9.760;2022-10-31T04:25:01;85.2;75.5;
13030;PMS7003;6582;54.644;9.760;2022-10-31T04:30:03;85.6;76.1;
13030;PMS7003;6582;54.644;9.760;2022-10-31T04:35:01;84.9;75.8;
13030;PMS7003;6582;54.644;9.760;2022-10-31T04:40:02;86.1;76.8;
13030;PMS7003;6582;54.644;9.760;2022-10-31T04:45:07;87.7;79.9;
13030;PMS7003;6582;54.644;9.760;2022-10-31T04:50:06;88.2;80.9;
13030;PMS7003;6582;54.644;9.760;2022-10-31T04:55:02;88.5;80.5;
13030;PMS7003;6582;54.644;9.760;2022-10-31T05:00:02;88.7;80.4;
13030;PMS7003;6582;54.644;9.760;2022-10-31T05:05:02;88.9;81.5;
13030;PMS7003;6582;54.644;9.760;2022-10-31T05:10:01;88.8;81.6;
13030;PMS7003;6582;54.644;9.760;2022-10-31T05:15:01;88.2;80.2;
13030;PMS7003;6582;54.644;9.760;2022-10-31T05:20:01;87.9;80.3;
13030;PMS7003;6582;54.644;9.760;2022-10-31T05:25:02;86.3;77.7;
13030;PMS7003;6582;54.644;9.760;2022-10-31T05:30:01;83.8;73.2;
13030;PMS7003;6582;54.644;9.760;2022-10-31T05:35:01;81.9;69.7;
13030;PMS7003;6582;54.644;9.760;2022-10-31T05:40:10;85.8;74.1;
13030;PMS7003;6582;54.644;9.760;2022-10-31T05:45:02;86.4;75.2;
13030;PMS7003;6582;54.644;9.760;2022-10-31T05:50:02;87.0;76.5;
13030;PMS7003;6582;54.644;9.760;2022-10-31T05:55:01;88.1;78.4;
13030;PMS7003;6582;54.644;9.760;2022-10-31T06:00:02;89.0;79.9;
13030;PMS7003;6582;54.644;9.760;2022-10-31T06:05:02;83.6;73.3;
13030;PMS7003;6582;54.644;9.760;2022-10-31T06:10:02;81.4;69.9;
13030;PMS7003;6582;54.644;9.760;2022-10-31T06:15:07;80.5;68.2;
13030;PMS7003;6582;54.644;9.760;2022-10-31T06:20:02;80.0;67.1;
13030;PMS7003;6582;54.644;9.760;2022-10-31T06:25:01;79.2;65.1;
13030;PMS7003;6582;54.644;9.760;2022-10-31T06:30:02;81.5;69.2;
13030;PMS7003;6582;54.644;9.760;2022-10-31T06:35:01;83.2;71.8;
13030;PMS7003;6582;54.644;9.760;2022-10-31T06:40:01;85.5;74.6;
13030;PMS7003;6582;54.644;9.760;2022-10-31T06:45:02;87.5;78.1;
13030;PMS7003;6582;54.644;9.760;2022-10-31T06:50:01;90.2;82.4;
13030;PMS7003;6582;54.644;9.760;2022-10-31T07:00:02;91.4;84.6;
13030;PMS7003;6582;54.644;9.760;2022-10-31T07:05:01;92.2;86.8;
13030;PMS7003;6582;54.644;9.760;2022-10-31T07:10:02;93.1;88.9;
13030;PMS7003;6582;54.644;9.760;2022-10-31T07:15:03;93.3;90.4;
13030;PMS7003;6582;54.644;9.760;2022-10-31T07:20:07;94.3;92.7;
13030;PMS7003;6582;54.644;9.760;2022-10-31T07:25:02;95.0;93.5;
13030;PMS7003;6582;54.644;9.760;2022-10-31T07:30:01;95.6;94.6;
13030;PMS7003;6582;54.644;9.760;2022-10-31T07:35:02;96.5;95.3;
13030;PMS7003;6582;54.644;9.760;2022-10-31T07:40:02;95.9;94.2;
13030;PMS7003;6582;54.644;9.760;2022-10-31T07:45:02;95.3;93.8;
13030;PMS7003;6582;54.644;9.760;2022-10-31T07:50:03;95.1;93.7;
13030;PMS7003;6582;54.644;9.760;2022-10-31T07:55:02;94.6;92.6;
13030;PMS7003;6582;54.644;9.760;2022-10-31T08:00:02;92.8;90.6;
13030;PMS7003;6582;54.644;9.760;2022-10-31T08:05:03;92.9;91.0;
13030;PMS7003;6582;54.644;9.760;2022-10-31T08:10:01;92.5;90.0;
13030;PMS7003;6582;54.644;9.760;2022-10-31T08:15:01;91.9;89.2;
13030;PMS7003;6582;54.644;9.760;2022-10-31T08:20:02;94.4;92.0;
13030;PMS7003;6582;54.644;9.760;2022-10-31T08:25:01;93.2;90.1;
13030;PMS7003;6582;54.644;9.760;2022-10-31T08:30:01;93.0;89.2;
13030;PMS7003;6582;54.644;9.760;2022-10-31T08:35:01;92.0;87.3;
13030;PMS7003;6582;54.644;9.760;2022-10-31T08:40:01;91.1;85.8;
13030;PMS7003;6582;54.644;9.760;2022-10-31T08:45:01;85.0;77.7;
13030;PMS7003;6582;54.644;9.760;2022-10-31T08:50:01;82.9;74.3;
13030;PMS7003;6582;54.644;9.760;2022-10-31T08:55:07;78.2;68.0;
13030;PMS7003;6582;54.644;9.760;2022-10-31T09:00:02;74.6;63.6;
13030;PMS7003;6582;54.644;9.760;2022-10-31T09:05:02;77.2;66.0;
13030;PMS7003;6582;54.644;9.760;2022-10-31T09:10:03;75.0;64.2;
13030;PMS7003;6582;54.644;9.760;2022-10-31T09:15:05;72.0;62.0;
13030;PMS7003;6582;54.644;9.760;2022-10-31T09:20:06;70.4;60.8;
13030;PMS7003;6582;54.644;9.760;2022-10-31T09:25:07;69.6;60.2;
13030;PMS7003;6582;54.644;9.760;2022-10-31T09:30:02;62.5;52.1;
13030;PMS7003;6582;54.644;9.760;2022-10-31T09:35:02;61.0;51.1;
13030;PMS7003;6582;54.644;9.760;2022-10-31T09:40:01;60.4;50.6;
13030;PMS7003;6582;54.644;9.760;2022-10-31T09:45:06;59.8;50.4;
13030;PMS7003;6582;54.644;9.760;2022-10-31T09:50:12;58.2;49.2;
13030;PMS7003;6582;54.644;9.760;2022-10-31T09:55:05;56.0;47.4;
13030;PMS7003;6582;54.644;9.760;2022-10-31T10:00:06;56.4;47.6;
13030;PMS7003;6582;54.644;9.760;2022-10-31T10:05:03;56.5;47.6;
13030;PMS7003;6582;54.644;9.760;2022-10-31T10:10:05;56.7;47.5;
13030;PMS7003;6582;54.644;9.760;2022-10-31T10:15:24;57.0;47.2;
13030;PMS7003;6582;54.644;9.760;2022-10-31T10:35:11;43.6;37.2;
13030;PMS7003;6582;54.644;9.760;2022-10-31T10:40:06;42.8;37.1;
13030;PMS7003;6582;54.644;9.760;2022-10-31T10:45:13;44.3;37.9;
13030;PMS7003;6582;54.644;9.760;2022-10-31T10:50:01;43.0;37.4;
13030;PMS7003;6582;54.644;9.760;2022-10-31T10:55:06;42.5;37.2;
13030;PMS7003;6582;54.644;9.760;2022-10-31T11:00:03;48.2;41.6;
13030;PMS7003;6582;54.644;9.760;2022-10-31T11:05:02;49.2;42.5;
13030;PMS7003;6582;54.644;9.760;2022-10-31T11:10:11;50.2;43.4;
13030;PMS7003;6582;54.644;9.760;2022-10-31T11:15:05;50.3;43.6;
13030;PMS7003;6582;54.644;9.760;2022-10-31T11:35:08;46.0;39.0;
13030;PMS7003;6582;54.644;9.760;2022-10-31T11:40:14;48.2;40.6;
13030;PMS7003;6582;54.644;9.760;2022-10-31T11:45:04;46.0;39.3;
13030;PMS7003;6582;54.644;9.760;2022-10-31T11:50:08;47.1;40.2;
13030;PMS7003;6582;54.644;9.760;2022-10-31T11:55:16;46.4;39.9;
13030;PMS7003;6582;54.644;9.760;2022-10-31T12:00:22;45.8;39.7;
13030;PMS7003;6582;54.644;9.760;2022-10-31T12:15:17;42.6;36.8;
13030;PMS7003;6582;54.644;9.760;2022-10-31T12:35:05;40.0;36.0;
13030;PMS7003;6582;54.644;9.760;2022-10-31T13:15:22;50.4;42.2;
13030;PMS7003;6582;54.644;9.760;2022-10-31T13:35:02;41.8;37.4;
13030;PMS7003;6582;54.644;9.760;2022-10-31T13:55:02;54.8;45.8;
13030;PMS7003;6582;54.644;9.760;2022-10-31T14:15:03;48.2;42.0;
13030;PMS7003;6582;54.644;9.760;2022-10-31T14:35:02;56.8;47.0;
13030;PMS7003;6582;54.644;9.760;2022-10-31T14:55:16;59.0;49.2;
13030;PMS7003;6582;54.644;9.760;2022-10-31T15:00:06;58.9;49.2;
13030;PMS7003;6582;54.644;9.760;2022-10-31T15:05:08;58.5;48.9;
13030;PMS7003;6582;54.644;9.760;2022-10-31T15:10:18;57.0;48.0;
13030;PMS7003;6582;54.644;9.760;2022-10-31T15:25:01;56.6;47.6;
13030;PMS7003;6582;54.644;9.760;2022-10-31T15:30:02;55.7;47.3;
13030;PMS7003;6582;54.644;9.760;2022-10-31T15:35:09;56.3;47.6;
13030;PMS7003;6582;54.644;9.760;2022-10-31T15:40:11;56.8;47.7;
13030;PMS7003;6582;54.644;9.760;2022-10-31T15:45:04;57.4;48.3;
13030;PMS7003;6582;54.644;9.760;2022-10-31T15:50:02;58.1;48.7;
13030;PMS7003;6582;54.644;9.760;2022-10-31T15:55:23;59.4;49.5;
13030;PMS7003;6582;54.644;9.760;2022-10-31T16:00:02;59.3;49.1;
13030;PMS7003;6582;54.644;9.760;2022-10-31T16:05:14;59.9;49.6;
13030;PMS7003;6582;54.644;9.760;2022-10-31T16:10:03;59.8;49.2;
13030;PMS7003;6582;54.644;9.760;2022-10-31T16:15:03;60.2;49.6;
13030;PMS7003;6582;54.644;9.760;2022-10-31T16:20:04;63.3;52.0;
13030;PMS7003;6582;54.644;9.760;2022-10-31T16:45:15;65.2;53.2;
13030;PMS7003;6582;54.644;9.760;2022-10-31T16:50:05;61.5;50.5;
13030;PMS7003;6582;54.644;9.760;2022-10-31T16:55:02;59.9;49.7;
13030;PMS7003;6582;54.644;9.760;2022-10-31T17:00:11;59.3;49.4;
13030;PMS7003;6582;54.644;9.760;2022-10-31T17:05:09;65.0;54.0;
13030;PMS7003;6582;54.644;9.760;2022-10-31T17:10:02;63.5;53.2;
13030;PMS7003;6582;54.644;9.760;2022-10-31T17:15:20;64.0;53.7;
13030;PMS7003;6582;54.644;9.760;2022-10-31T17:20:16;65.2;54.3;
13030;PMS7003;6582;54.644;9.760;2022-10-31T17:45:05;63.8;52.8;
13030;PMS7003;6582;54.644;9.760;2022-10-31T17:50:02;60.0;50.2;
13030;PMS7003;6582;54.644;9.760;2022-10-31T17:55:02;59.4;49.0;
13030;PMS7003;6582;54.644;9.760;2022-10-31T18:00:08;58.5;48.7;
13030;PMS7003;6582;54.644;9.760;2022-10-31T18:05:03;58.7;49.0;
13030;PMS7003;6582;54.644;9.760;2022-10-31T18:10:04;58.5;48.8;
13030;PMS7003;6582;54.644;9.760;2022-10-31T18:15:04;59.1;49.1;
13030;PMS7003;6582;54.644;9.760;2022-10-31T18:20:07;60.4;50.4;
13030;PMS7003;6582;54.644;9.760;2022-10-31T18:25:03;62.5;51.5;
13030;PMS7003;6582;54.644;9.760;2022-10-31T18:30:02;64.0;52.5;
13030;PMS7003;6582;54.644;9.760;2022-10-31T18:35:07;64.9;53.4;
13030;PMS7003;6582;54.644;9.760;2022-10-31T18:40:08;67.0;55.1;
13030;PMS7003;6582;54.644;9.760;2022-10-31T18:45:27;68.9;56.6;
13030;PMS7003;6582;54.644;9.760;2022-10-31T18:50:08;67.8;55.9;
13030;PMS7003;6582;54.644;9.760;2022-10-31T18:55:06;66.6;54.9;
13030;PMS7003;6582;54.644;9.760;2022-10-31T19:00:03;68.7;56.3;
13030;PMS7003;6582;54.644;9.760;2022-10-31T19:05:02;66.0;54.2;
13030;PMS7003;6582;54.644;9.760;2022-10-31T19:10:04;64.0;52.8;
13030;PMS7003;6582;54.644;9.760;2022-10-31T19:15:02;65.1;53.7;
13030;PMS7003;6582;54.644;9.760;2022-10-31T19:20:02;66.5;54.7;
13030;PMS7003;6582;54.644;9.760;2022-10-31T19:25:14;65.5;54.0;
13030;PMS7003;6582;54.644;9.760;2022-10-31T19:30:04;67.8;55.8;
13030;PMS7003;6582;54.644;9.760;2022-10-31T19:35:07;69.8;57.0;
13030;PMS7003;6582;54.644;9.760;2022-10-31T19:40:07;71.4;58.3;
13030;PMS7003;6582;54.644;9.760;2022-10-31T19:45:08;75.3;62.9;
13030;PMS7003;6582;54.644;9.760;2022-10-31T19:50:07;76.7;64.2;
13030;PMS7003;6582;54.644;9.760;2022-10-31T20:00:03;77.1;64.8;
13030;PMS7003;6582;54.644;9.760;2022-10-31T20:05:02;76.6;64.2;
13030;PMS7003;6582;54.644;9.760;2022-10-31T20:10:02;70.0;57.3;
13030;PMS7003;6582;54.644;9.760;2022-10-31T20:15:11;65.9;54.1;
13030;PMS7003;6582;54.644;9.760;2022-10-31T20:20:02;65.1;53.5;
13030;PMS7003;6582;54.644;9.760;2022-10-31T20:25:16;61.4;50.6;
13030;PMS7003;6582;54.644;9.760;2022-10-31T20:30:02;60.6;50.0;
13030;PMS7003;6582;54.644;9.760;2022-10-31T20:35:02;63.4;52.7;
13030;PMS7003;6582;54.644;9.760;2022-10-31T20:40:02;65.6;54.1;
13030;PMS7003;6582;54.644;9.760;2022-10-31T20:45:03;66.9;54.9;
13030;PMS7003;6582;54.644;9.760;2022-10-31T20:50:02;70.7;58.2;
13030;PMS7003;6582;54.644;9.760;2022-10-31T20:55:11;69.1;57.2;
13030;PMS7003;6582;54.644;9.760;2022-10-31T21:00:02;68.1;56.3;
13030;PMS7003;6582;54.644;9.760;2022-10-31T21:05:04;66.5;55.4;
13030;PMS7003;6582;54.644;9.760;2022-10-31T21:10:07;66.1;55.1;
13030;PMS7003;6582;54.644;9.760;2022-10-31T21:15:04;63.8;52.9;
13030;PMS7003;6582;54.644;9.760;2022-10-31T21:20:05;64.6;53.5;
13030;PMS7003;6582;54.644;9.760;2022-10-31T21:25:03;65.6;54.2;
13030;PMS7003;6582;54.644;9.760;2022-10-31T21:30:11;66.0;54.3;
13030;PMS7003;6582;54.644;9.760;2022-10-31T21:35:12;66.9;55.0;
13030;PMS7003;6582;54.644;9.760;2022-10-31T21:40:04;69.1;57.0;
13030;PMS7003;6582;54.644;9.760;2022-10-31T21:45:04;73.6;62.1;
13030;PMS7003;6582;54.644;9.760;2022-10-31T21:50:08;73.9;62.1;
13030;PMS7003;6582;54.644;9.760;2022-10-31T21:55:04;74.0;62.0;
13030;PMS7003;6582;54.644;9.760;2022-10-31T22:00:03;72.0;60.2;
13030;PMS7003;6582;54.644;9.760;2022-10-31T22:05:04;69.3;57.9;
13030;PMS7003;6582;54.644;9.760;2022-10-31T22:10:04;64.6;52.7;
13030;PMS7003;6582;54.644;9.760;2022-10-31T22:15:07;62.8;51.4;
13030;PMS7003;6582;54.644;9.760;2022-10-31T22:20:11;64.0;52.4;
13030;PMS7003;6582;54.644;9.760;2022-10-31T22:25:08;73.4;63.3;
13030;PMS7003;6582;54.644;9.760;2022-10-31T22:30:02;74.7;64.2;
13030;PMS7003;6582;54.644;9.760;2022-10-31T22:35:02;76.4;65.2;
13030;PMS7003;6582;54.644;9.760;2022-10-31T22:40:03;79.0;67.4;
13030;PMS7003;6582;54.644;9.760;2022-10-31T22:45:03;79.1;67.5;
13030;PMS7003;6582;54.644;9.760;2022-10-31T22:50:02;73.2;59.5;
13030;PMS7003;6582;54.644;9.760;2022-10-31T22:55:02;75.6;61.8;
13030;PMS7003;6582;54.644;9.760;2022-10-31T23:00:08;74.3;60.6;
13030;PMS7003;6582;54.644;9.760;2022-10-31T23:05:02;72.5;59.2;
13030;PMS7003;6582;54.644;9.760;2022-10-31T23:10:02;71.0;58.2;
13030;PMS7003;6582;54.644;9.760;2022-10-31T23:15:03;68.7;56.2;
13030;PMS7003;6582;54.644;9.760;2022-10-31T23:20:02;65.0;53.2;
13030;PMS7003;6582;54.644;9.760;2022-10-31T23:25:02;66.3;54.4;
13030;PMS7003;6582;54.644;9.760;2022-10-31T23:30:03;67.5;55.4;
13030;PMS7003;6582;54.644;9.760;2022-10-31T23:35:04;68.9;56.5;
13030;PMS7003;6582;54.644;9.760;2022-10-31T23:40:07;67.4;55.3;
13030;PMS7003;6582;54.644;9.760;2022-10-31T23:45:21;68.5;55.6;
13030;PMS7003;6582;54.644;9.760;2022-10-31T23:50:06;66.4;54.1;
13030;PMS7003;6582;54.644;9.760;2022-10-31T23:55:02;65.3;53.2;
